sensor_id;sensor_type;location;lat;lon;timestamp;temperature;humidity
34766;DHT22;20984;43.508;1.504;2023-07-20T00:00:53;20.00;99.90
34766;DHT22;20984;43.508;1.504;2023-07-20T00:03:19;20.00;99.90
34766;DHT22;20984;43.508;1.504;2023-07-20T00:05:49;20.00;99.90
34766;DHT22;20984;43.508;1.504;2023-07-20T00:08:15;20.00;99.90
34766;DHT22;20984;43.508;1.504;2023-07-20T00:10:42;20.00;99.90
34766;DHT22;20984;43.508;1.504;2023-07-20T00:13:08;20.00;99.90
34766;DHT22;20984;43.508;1.504;2023-07-20T00:15:34;19.90;99.90
34766;DHT22;20984;43.508;1.504;2023-07-20T00:17:59;19.90;99.90
34766;DHT22;20984;43.508;1.504;2023-07-20T00:20:25;19.80;99.90
34766;DHT22;20984;43.508;1.504;2023-07-20T00:22:51;19.70;99.90
34766;DHT22;20984;43.508;1.504;2023-07-20T00:25:17;19.70;99.90
34766;DHT22;20984;43.508;1.504;2023-07-20T00:27:43;19.60;99.90
34766;DHT22;20984;43.508;1.504;2023-07-20T00:30:09;19.60;99.90
34766;DHT22;20984;43.508;1.504;2023-07-20T00:32:35;19.60;99.90
34766;DHT22;20984;43.508;1.504;2023-07-20T00:35:01;19.60;99.90
34766;DHT22;20984;43.508;1.504;2023-07-20T00:37:27;19.60;99.90
34766;DHT22;20984;43.508;1.504;2023-07-20T00:39:53;19.60;99.90
34766;DHT22;20984;43.508;1.504;2023-07-20T00:42:18;19.60;99.90
34766;DHT22;20984;43.508;1.504;2023-07-20T00:44:44;19.60;99.90
34766;DHT22;20984;43.508;1.504;2023-07-20T00:47:10;19.60;99.90
34766;DHT22;20984;43.508;1.504;2023-07-20T00:49:36;19.50;99.90
34766;DHT22;20984;43.508;1.504;2023-07-20T00:52:03;19.50;99.90
34766;DHT22;20984;43.508;1.504;2023-07-20T00:54:32;19.40;99.90
34766;DHT22;20984;43.508;1.504;2023-07-20T00:56:58;19.40;99.90
34766;DHT22;20984;43.508;1.504;2023-07-20T00:59:26;19.30;99.90
34766;DHT22;20984;43.508;1.504;2023-07-20T01:01:52;19.30;99.90
34766;DHT22;20984;43.508;1.504;2023-07-20T01:04:18;19.30;99.90
34766;DHT22;20984;43.508;1.504;2023-07-20T01:07:17;19.20;99.90
34766;DHT22;20984;43.508;1.504;2023-07-20T01:10:06;19.20;99.90
34766;DHT22;20984;43.508;1.504;2023-07-20T01:12:42;19.20;99.90
34766;DHT22;20984;43.508;1.504;2023-07-20T01:15:08;19.20;99.90
34766;DHT22;20984;43.508;1.504;2023-07-20T01:17:35;19.20;99.90
34766;DHT22;20984;43.508;1.504;2023-07-20T01:20:00;19.20;99.90
34766;DHT22;20984;43.508;1.504;2023-07-20T01:22:38;19.20;99.90
34766;DHT22;20984;43.508;1.504;2023-07-20T01:33:33;19.20;99.90
34766;DHT22;20984;43.508;1.504;2023-07-20T01:35:59;19.20;99.90
34766;DHT22;20984;43.508;1.504;2023-07-20T01:38:26;19.20;99.90
34766;DHT22;20984;43.508;1.504;2023-07-20T01:40:51;19.10;99.90
34766;DHT22;20984;43.508;1.504;2023-07-20T01:43:17;19.10;99.90
34766;DHT22;20984;43.508;1.504;2023-07-20T01:45:43;19.00;99.90
34766;DHT22;20984;43.508;1.504;2023-07-20T01:48:09;19.00;99.90
34766;DHT22;20984;43.508;1.504;2023-07-20T01:50:35;18.90;99.90
34766;DHT22;20984;43.508;1.504;2023-07-20T01:53:01;18.90;99.90
34766;DHT22;20984;43.508;1.504;2023-07-20T01:55:27;18.80;99.90
34766;DHT22;20984;43.508;1.504;2023-07-20T01:57:54;18.70;99.90
34766;DHT22;20984;43.508;1.504;2023-07-20T02:00:20;18.60;99.90
34766;DHT22;20984;43.508;1.504;2023-07-20T02:02:49;18.60;99.90
34766;DHT22;20984;43.508;1.504;2023-07-20T02:05:16;18.60;99.90
34766;DHT22;20984;43.508;1.504;2023-07-20T02:07:42;18.60;99.90
34766;DHT22;20984;43.508;1.504;2023-07-20T02:10:08;18.60;99.90
34766;DHT22;20984;43.508;1.504;2023-07-20T02:12:34;18.50;99.90
34766;DHT22;20984;43.508;1.504;2023-07-20T02:14:59;18.50;99.90
34766;DHT22;20984;43.508;1.504;2023-07-20T02:17:25;18.50;99.90
34766;DHT22;20984;43.508;1.504;2023-07-20T02:19:52;18.50;99.90
34766;DHT22;20984;43.508;1.504;2023-07-20T02:22:18;18.40;99.90
34766;DHT22;20984;43.508;1.504;2023-07-20T02:24:44;18.40;99.90
34766;DHT22;20984;43.508;1.504;2023-07-20T02:27:10;18.40;99.90
34766;DHT22;20984;43.508;1.504;2023-07-20T02:29:35;18.40;99.90
34766;DHT22;20984;43.508;1.504;2023-07-20T02:32:02;18.40;99.90
34766;DHT22;20984;43.508;1.504;2023-07-20T02:34:27;18.40;99.90
34766;DHT22;20984;43.508;1.504;2023-07-20T02:36:53;18.40;99.90
34766;DHT22;20984;43.508;1.504;2023-07-20T02:39:21;18.30;99.90
34766;DHT22;20984;43.508;1.504;2023-07-20T02:41:47;18.30;99.90
34766;DHT22;20984;43.508;1.504;2023-07-20T02:44:14;18.30;99.90
34766;DHT22;20984;43.508;1.504;2023-07-20T02:46:40;18.20;99.90
34766;DHT22;20984;43.508;1.504;2023-07-20T02:49:06;18.20;99.90
34766;DHT22;20984;43.508;1.504;2023-07-20T02:51:31;18.20;99.90
34766;DHT22;20984;43.508;1.504;2023-07-20T02:53:57;18.20;99.90
34766;DHT22;20984;43.508;1.504;2023-07-20T02:56:23;18.10;99.90
34766;DHT22;20984;43.508;1.504;2023-07-20T02:58:49;18.10;99.90
34766;DHT22;20984;43.508;1.504;2023-07-20T03:01:15;18.10;99.90
34766;DHT22;20984;43.508;1.504;2023-07-20T03:03:41;18.10;99.90
34766;DHT22;20984;43.508;1.504;2023-07-20T03:06:07;18.10;99.90
34766;DHT22;20984;43.508;1.504;2023-07-20T03:08:35;18.10;99.90
34766;DHT22;20984;43.508;1.504;2023-07-20T03:11:01;18.00;99.90
34766;DHT22;20984;43.508;1.504;2023-07-20T03:13:27;18.00;99.90
34766;DHT22;20984;43.508;1.504;2023-07-20T03:15:53;18.00;99.90
34766;DHT22;20984;43.508;1.504;2023-07-20T03:18:18;18.00;99.90
34766;DHT22;20984;43.508;1.504;2023-07-20T03:20:44;18.00;99.90
34766;DHT22;20984;43.508;1.504;2023-07-20T03:23:10;18.00;99.90
34766;DHT22;20984;43.508;1.504;2023-07-20T03:25:36;17.90;99.90
34766;DHT22;20984;43.508;1.504;2023-07-20T03:28:03;17.90;99.90
34766;DHT22;20984;43.508;1.504;2023-07-20T03:30:28;17.80;99.90
34766;DHT22;20984;43.508;1.504;2023-07-20T03:32:54;17.80;99.90
34766;DHT22;20984;43.508;1.504;2023-07-20T03:35:20;17.80;99.90
34766;DHT22;20984;43.508;1.504;2023-07-20T03:37:45;17.80;99.90
34766;DHT22;20984;43.508;1.504;2023-07-20T03:40:11;17.70;99.90
34766;DHT22;20984;43.508;1.504;2023-07-20T03:42:37;17.70;99.90
34766;DHT22;20984;43.508;1.504;2023-07-20T03:45:04;17.70;99.90
34766;DHT22;20984;43.508;1.504;2023-07-20T03:47:31;17.70;99.90
34766;DHT22;20984;43.508;1.504;2023-07-20T03:49:57;17.70;99.90
34766;DHT22;20984;43.508;1.504;2023-07-20T03:52:23;17.60;99.90
34766;DHT22;20984;43.508;1.504;2023-07-20T03:54:49;17.60;99.90
34766;DHT22;20984;43.508;1.504;2023-07-20T03:57:17;17.60;99.90
34766;DHT22;20984;43.508;1.504;2023-07-20T03:59:45;17.50;99.90
34766;DHT22;20984;43.508;1.504;2023-07-20T04:02:11;17.50;99.90
34766;DHT22;20984;43.508;1.504;2023-07-20T04:04:37;17.50;99.90
34766;DHT22;20984;43.508;1.504;2023-07-20T04:07:03;17.40;99.90
34766;DHT22;20984;43.508;1.504;2023-07-20T04:09:31;17.40;99.90
34766;DHT22;20984;43.508;1.504;2023-07-20T04:11:56;17.30;99.90
34766;DHT22;20984;43.508;1.504;2023-07-20T04:14:22;17.30;99.90
34766;DHT22;20984;43.508;1.504;2023-07-20T04:16:48;17.30;99.90
34766;DHT22;20984;43.508;1.504;2023-07-20T04:19:13;17.30;99.90
34766;DHT22;20984;43.508;1.504;2023-07-20T04:21:40;17.30;99.90
34766;DHT22;20984;43.508;1.504;2023-07-20T04:24:06;17.30;99.90
34766;DHT22;20984;43.508;1.504;2023-07-20T04:26:32;17.30;99.90
34766;DHT22;20984;43.508;1.504;2023-07-20T04:28:58;17.30;99.90
34766;DHT22;20984;43.508;1.504;2023-07-20T04:31:24;17.30;99.90
34766;DHT22;20984;43.508;1.504;2023-07-20T04:33:50;17.30;99.90
34766;DHT22;20984;43.508;1.504;2023-07-20T04:36:16;17.30;99.90
34766;DHT22;20984;43.508;1.504;2023-07-20T04:38:45;17.30;99.90
34766;DHT22;20984;43.508;1.504;2023-07-20T04:41:11;17.30;99.90
34766;DHT22;20984;43.508;1.504;2023-07-20T04:43:44;17.30;99.90
34766;DHT22;20984;43.508;1.504;2023-07-20T04:46:10;17.30;99.90
34766;DHT22;20984;43.508;1.504;2023-07-20T04:48:36;17.30;99.90
34766;DHT22;20984;43.508;1.504;2023-07-20T04:51:02;17.40;99.90
34766;DHT22;20984;43.508;1.504;2023-07-20T04:53:27;17.40;99.90
34766;DHT22;20984;43.508;1.504;2023-07-20T04:55:53;17.40;99.90
34766;DHT22;20984;43.508;1.504;2023-07-20T04:58:21;17.50;99.90
34766;DHT22;20984;43.508;1.504;2023-07-20T05:00:48;17.50;99.90
34766;DHT22;20984;43.508;1.504;2023-07-20T05:03:14;17.60;99.90
34766;DHT22;20984;43.508;1.504;2023-07-20T05:05:40;17.60;99.90
34766;DHT22;20984;43.508;1.504;2023-07-20T05:08:05;17.60;99.90
34766;DHT22;20984;43.508;1.504;2023-07-20T05:10:31;17.70;99.90
34766;DHT22;20984;43.508;1.504;2023-07-20T05:12:58;17.70;99.90
34766;DHT22;20984;43.508;1.504;2023-07-20T05:15:23;17.70;99.90
34766;DHT22;20984;43.508;1.504;2023-07-20T05:17:49;17.80;99.90
34766;DHT22;20984;43.508;1.504;2023-07-20T05:20:15;17.90;99.90
34766;DHT22;20984;43.508;1.504;2023-07-20T05:22:41;17.90;99.90
34766;DHT22;20984;43.508;1.504;2023-07-20T05:25:10;18.00;99.90
34766;DHT22;20984;43.508;1.504;2023-07-20T05:27:37;18.00;99.90
34766;DHT22;20984;43.508;1.504;2023-07-20T05:30:03;18.10;99.90
34766;DHT22;20984;43.508;1.504;2023-07-20T05:32:29;18.20;99.90
34766;DHT22;20984;43.508;1.504;2023-07-20T05:34:55;18.30;99.90
34766;DHT22;20984;43.508;1.504;2023-07-20T05:37:21;18.40;99.90
34766;DHT22;20984;43.508;1.504;2023-07-20T05:39:47;18.40;99.90
34766;DHT22;20984;43.508;1.504;2023-07-20T05:42:12;18.40;99.90
34766;DHT22;20984;43.508;1.504;2023-07-20T05:44:39;18.50;99.90
34766;DHT22;20984;43.508;1.504;2023-07-20T05:47:05;18.50;99.90
34766;DHT22;20984;43.508;1.504;2023-07-20T05:49:30;18.50;99.90
34766;DHT22;20984;43.508;1.504;2023-07-20T05:51:56;18.50;99.90
34766;DHT22;20984;43.508;1.504;2023-07-20T05:54:23;18.60;99.90
34766;DHT22;20984;43.508;1.504;2023-07-20T05:56:49;18.70;99.90
34766;DHT22;20984;43.508;1.504;2023-07-20T05:59:14;18.70;99.90
34766;DHT22;20984;43.508;1.504;2023-07-20T06:01:41;18.80;99.90
34766;DHT22;20984;43.508;1.504;2023-07-20T06:04:07;18.80;99.90
34766;DHT22;20984;43.508;1.504;2023-07-20T06:06:33;18.90;99.90
34766;DHT22;20984;43.508;1.504;2023-07-20T06:09:00;19.00;99.90
34766;DHT22;20984;43.508;1.504;2023-07-20T06:11:29;19.00;99.90
34766;DHT22;20984;43.508;1.504;2023-07-20T06:13:56;19.10;99.90
34766;DHT22;20984;43.508;1.504;2023-07-20T06:16:22;19.10;99.90
34766;DHT22;20984;43.508;1.504;2023-07-20T06:18:48;19.20;99.90
34766;DHT22;20984;43.508;1.504;2023-07-20T06:21:13;19.30;99.90
34766;DHT22;20984;43.508;1.504;2023-07-20T06:23:39;19.30;99.90
34766;DHT22;20984;43.508;1.504;2023-07-20T06:26:06;19.40;99.90
34766;DHT22;20984;43.508;1.504;2023-07-20T06:28:32;19.40;99.90
34766;DHT22;20984;43.508;1.504;2023-07-20T06:31:01;19.40;99.90
34766;DHT22;20984;43.508;1.504;2023-07-20T06:33:27;19.50;99.90
34766;DHT22;20984;43.508;1.504;2023-07-20T06:35:53;19.60;99.90
34766;DHT22;20984;43.508;1.504;2023-07-20T06:38:19;19.60;99.90
34766;DHT22;20984;43.508;1.504;2023-07-20T06:40:49;19.60;99.90
34766;DHT22;20984;43.508;1.504;2023-07-20T06:43:15;19.70;99.90
34766;DHT22;20984;43.508;1.504;2023-07-20T06:45:41;19.70;99.90
34766;DHT22;20984;43.508;1.504;2023-07-20T06:48:07;19.70;99.90
34766;DHT22;20984;43.508;1.504;2023-07-20T06:50:33;19.80;99.90
34766;DHT22;20984;43.508;1.504;2023-07-20T06:52:59;19.80;99.90
34766;DHT22;20984;43.508;1.504;2023-07-20T06:55:26;19.90;99.90
34766;DHT22;20984;43.508;1.504;2023-07-20T06:57:51;20.00;99.90
34766;DHT22;20984;43.508;1.504;2023-07-20T07:00:17;20.10;99.90
34766;DHT22;20984;43.508;1.504;2023-07-20T07:02:43;20.00;99.90
34766;DHT22;20984;43.508;1.504;2023-07-20T07:05:09;20.00;99.90
34766;DHT22;20984;43.508;1.504;2023-07-20T07:07:35;20.10;99.90
34766;DHT22;20984;43.508;1.504;2023-07-20T07:10:01;20.10;99.90
34766;DHT22;20984;43.508;1.504;2023-07-20T07:12:27;20.30;99.90
34766;DHT22;20984;43.508;1.504;2023-07-20T07:14:53;20.30;99.90
34766;DHT22;20984;43.508;1.504;2023-07-20T07:17:19;20.40;99.90
34766;DHT22;20984;43.508;1.504;2023-07-20T07:19:44;20.70;99.90
34766;DHT22;20984;43.508;1.504;2023-07-20T07:22:10;20.70;99.90
34766;DHT22;20984;43.508;1.504;2023-07-20T07:24:37;20.70;99.90
34766;DHT22;20984;43.508;1.504;2023-07-20T07:27:02;20.80;99.90
34766;DHT22;20984;43.508;1.504;2023-07-20T07:29:29;21.00;99.90
34766;DHT22;20984;43.508;1.504;2023-07-20T07:31:55;21.00;99.90
34766;DHT22;20984;43.508;1.504;2023-07-20T07:34:21;21.30;99.90
34766;DHT22;20984;43.508;1.504;2023-07-20T07:36:46;21.40;99.90
34766;DHT22;20984;43.508;1.504;2023-07-20T07:39:12;21.40;99.90
34766;DHT22;20984;43.508;1.504;2023-07-20T07:41:38;21.50;99.90
34766;DHT22;20984;43.508;1.504;2023-07-20T07:44:04;21.60;99.90
34766;DHT22;20984;43.508;1.504;2023-07-20T07:46:30;21.60;99.90
34766;DHT22;20984;43.508;1.504;2023-07-20T07:48:56;21.70;99.90
34766;DHT22;20984;43.508;1.504;2023-07-20T07:51:21;21.90;99.90
34766;DHT22;20984;43.508;1.504;2023-07-20T07:53:47;22.10;99.90
34766;DHT22;20984;43.508;1.504;2023-07-20T07:56:14;22.20;99.90
34766;DHT22;20984;43.508;1.504;2023-07-20T07:58:40;22.20;99.90
34766;DHT22;20984;43.508;1.504;2023-07-20T08:01:06;22.20;99.90
34766;DHT22;20984;43.508;1.504;2023-07-20T08:03:31;22.30;99.90
34766;DHT22;20984;43.508;1.504;2023-07-20T08:05:57;22.30;99.90
34766;DHT22;20984;43.508;1.504;2023-07-20T08:08:25;22.30;99.90
34766;DHT22;20984;43.508;1.504;2023-07-20T08:10:53;22.30;99.90
34766;DHT22;20984;43.508;1.504;2023-07-20T08:13:20;22.30;99.90
34766;DHT22;20984;43.508;1.504;2023-07-20T08:15:48;22.50;99.90
34766;DHT22;20984;43.508;1.504;2023-07-20T08:18:14;22.70;99.90
34766;DHT22;20984;43.508;1.504;2023-07-20T08:20:43;22.80;99.90
34766;DHT22;20984;43.508;1.504;2023-07-20T08:23:08;22.90;99.90
34766;DHT22;20984;43.508;1.504;2023-07-20T08:25:36;23.00;99.90
34766;DHT22;20984;43.508;1.504;2023-07-20T08:28:05;23.10;99.90
34766;DHT22;20984;43.508;1.504;2023-07-20T08:30:40;23.40;99.90
34766;DHT22;20984;43.508;1.504;2023-07-20T08:33:06;23.20;99.90
34766;DHT22;20984;43.508;1.504;2023-07-20T08:35:32;23.20;99.90
34766;DHT22;20984;43.508;1.504;2023-07-20T08:37:57;23.40;99.90
34766;DHT22;20984;43.508;1.504;2023-07-20T08:40:23;23.40;99.90
34766;DHT22;20984;43.508;1.504;2023-07-20T08:42:49;23.40;99.90
34766;DHT22;20984;43.508;1.504;2023-07-20T08:45:16;23.40;99.90
34766;DHT22;20984;43.508;1.504;2023-07-20T08:47:43;23.50;99.90
34766;DHT22;20984;43.508;1.504;2023-07-20T08:50:11;23.80;99.90
34766;DHT22;20984;43.508;1.504;2023-07-20T08:52:38;24.10;99.90
34766;DHT22;20984;43.508;1.504;2023-07-20T08:55:04;24.10;99.90
34766;DHT22;20984;43.508;1.504;2023-07-20T08:57:33;23.70;99.90
34766;DHT22;20984;43.508;1.504;2023-07-20T09:00:01;23.70;99.90
34766;DHT22;20984;43.508;1.504;2023-07-20T09:02:30;24.00;99.90
34766;DHT22;20984;43.508;1.504;2023-07-20T09:05:00;24.20;99.90
34766;DHT22;20984;43.508;1.504;2023-07-20T09:07:26;24.20;99.90
34766;DHT22;20984;43.508;1.504;2023-07-20T09:09:52;24.50;99.90
34766;DHT22;20984;43.508;1.504;2023-07-20T09:12:18;24.70;99.90
34766;DHT22;20984;43.508;1.504;2023-07-20T09:14:44;24.70;99.90
34766;DHT22;20984;43.508;1.504;2023-07-20T09:17:14;24.70;99.90
34766;DHT22;20984;43.508;1.504;2023-07-20T09:19:46;24.80;99.90
34766;DHT22;20984;43.508;1.504;2023-07-20T09:22:12;25.10;99.90
34766;DHT22;20984;43.508;1.504;2023-07-20T09:24:38;25.20;99.90
34766;DHT22;20984;43.508;1.504;2023-07-20T09:27:04;25.40;99.90
34766;DHT22;20984;43.508;1.504;2023-07-20T09:29:30;25.60;99.90
34766;DHT22;20984;43.508;1.504;2023-07-20T09:32:03;25.70;99.90
34766;DHT22;20984;43.508;1.504;2023-07-20T09:34:30;25.60;99.90
34766;DHT22;20984;43.508;1.504;2023-07-20T09:36:59;25.60;99.90
34766;DHT22;20984;43.508;1.504;2023-07-20T09:39:26;25.80;99.90
34766;DHT22;20984;43.508;1.504;2023-07-20T09:41:51;26.10;99.90
34766;DHT22;20984;43.508;1.504;2023-07-20T09:44:17;26.00;99.90
34766;DHT22;20984;43.508;1.504;2023-07-20T09:46:50;25.70;99.90
34766;DHT22;20984;43.508;1.504;2023-07-20T09:49:17;25.40;99.90
34766;DHT22;20984;43.508;1.504;2023-07-20T09:51:44;25.50;99.90
34766;DHT22;20984;43.508;1.504;2023-07-20T09:54:10;25.60;99.90
34766;DHT22;20984;43.508;1.504;2023-07-20T09:56:38;25.40;99.90
34766;DHT22;20984;43.508;1.504;2023-07-20T09:59:04;25.50;99.90
34766;DHT22;20984;43.508;1.504;2023-07-20T10:01:30;25.70;99.90
34766;DHT22;20984;43.508;1.504;2023-07-20T10:03:58;25.80;99.90
34766;DHT22;20984;43.508;1.504;2023-07-20T10:06:28;25.80;99.90
34766;DHT22;20984;43.508;1.504;2023-07-20T10:09:01;25.60;99.90
34766;DHT22;20984;43.508;1.504;2023-07-20T10:11:30;25.40;99.90
34766;DHT22;20984;43.508;1.504;2023-07-20T10:13:59;25.50;99.90
34766;DHT22;20984;43.508;1.504;2023-07-20T10:16:26;25.50;99.90
34766;DHT22;20984;43.508;1.504;2023-07-20T10:21:29;25.80;99.90
34766;DHT22;20984;43.508;1.504;2023-07-20T10:23:56;25.90;99.90
34766;DHT22;20984;43.508;1.504;2023-07-20T10:26:22;26.10;99.90
34766;DHT22;20984;43.508;1.504;2023-07-20T10:28:48;26.40;99.90
34766;DHT22;20984;43.508;1.504;2023-07-20T10:31:15;26.60;99.90
34766;DHT22;20984;43.508;1.504;2023-07-20T10:33:41;26.50;99.90
34766;DHT22;20984;43.508;1.504;2023-07-20T10:36:07;26.30;99.90
34766;DHT22;20984;43.508;1.504;2023-07-20T10:41:28;26.20;99.90
34766;DHT22;20984;43.508;1.504;2023-07-20T10:44:07;26.20;99.90
34766;DHT22;20984;43.508;1.504;2023-07-20T10:46:44;26.20;99.90
34766;DHT22;20984;43.508;1.504;2023-07-20T10:49:11;26.20;99.90
34766;DHT22;20984;43.508;1.504;2023-07-20T10:51:46;26.20;99.90
34766;DHT22;20984;43.508;1.504;2023-07-20T10:56:42;26.20;99.90
34766;DHT22;20984;43.508;1.504;2023-07-20T10:59:19;26.60;99.90
34766;DHT22;20984;43.508;1.504;2023-07-20T11:01:47;27.00;99.90
34766;DHT22;20984;43.508;1.504;2023-07-20T11:04:15;27.10;99.90
34766;DHT22;20984;43.508;1.504;2023-07-20T11:06:45;27.30;99.90
34766;DHT22;20984;43.508;1.504;2023-07-20T11:09:12;27.10;99.90
34766;DHT22;20984;43.508;1.504;2023-07-20T11:11:46;27.00;99.90
34766;DHT22;20984;43.508;1.504;2023-07-20T11:14:22;27.10;99.90
34766;DHT22;20984;43.508;1.504;2023-07-20T11:16:49;27.40;99.90
34766;DHT22;20984;43.508;1.504;2023-07-20T11:19:20;27.50;99.90
34766;DHT22;20984;43.508;1.504;2023-07-20T11:21:55;27.60;99.90
34766;DHT22;20984;43.508;1.504;2023-07-20T11:24:22;27.40;99.90
34766;DHT22;20984;43.508;1.504;2023-07-20T11:26:52;27.30;99.90
34766;DHT22;20984;43.508;1.504;2023-07-20T11:29:20;27.20;99.90
34766;DHT22;20984;43.508;1.504;2023-07-20T11:31:46;27.00;99.90
34766;DHT22;20984;43.508;1.504;2023-07-20T11:34:15;26.80;99.90
34766;DHT22;20984;43.508;1.504;2023-07-20T11:36:51;27.00;99.90
34766;DHT22;20984;43.508;1.504;2023-07-20T11:39:19;27.30;99.90
34766;DHT22;20984;43.508;1.504;2023-07-20T11:41:49;27.70;99.90
34766;DHT22;20984;43.508;1.504;2023-07-20T11:44:19;27.80;99.80
34766;DHT22;20984;43.508;1.504;2023-07-20T11:46:46;27.50;98.90
34766;DHT22;20984;43.508;1.504;2023-07-20T11:49:12;27.30;98.90
34766;DHT22;20984;43.508;1.504;2023-07-20T11:51:39;27.20;99.30
34766;DHT22;20984;43.508;1.504;2023-07-20T11:54:07;27.20;99.90
34766;DHT22;20984;43.508;1.504;2023-07-20T11:56:33;27.50;99.90
34766;DHT22;20984;43.508;1.504;2023-07-20T11:58:59;27.70;99.90
34766;DHT22;20984;43.508;1.504;2023-07-20T12:01:28;27.80;99.90
34766;DHT22;20984;43.508;1.504;2023-07-20T12:03:59;27.90;99.80
34766;DHT22;20984;43.508;1.504;2023-07-20T12:06:26;27.80;99.90
34766;DHT22;20984;43.508;1.504;2023-07-20T12:08:55;27.90;99.50
34766;DHT22;20984;43.508;1.504;2023-07-20T12:13:57;27.70;98.20
34766;DHT22;20984;43.508;1.504;2023-07-20T12:16:27;27.80;99.90
34766;DHT22;20984;43.508;1.504;2023-07-20T12:19:07;27.90;99.00
34766;DHT22;20984;43.508;1.504;2023-07-20T12:21:40;27.80;98.40
34766;DHT22;20984;43.508;1.504;2023-07-20T12:24:08;27.70;97.30
34766;DHT22;20984;43.508;1.504;2023-07-20T12:26:37;27.80;98.00
34766;DHT22;20984;43.508;1.504;2023-07-20T12:29:03;28.00;98.60
34766;DHT22;20984;43.508;1.504;2023-07-20T12:31:30;28.20;98.70
34766;DHT22;20984;43.508;1.504;2023-07-20T12:33:57;28.30;98.40
34766;DHT22;20984;43.508;1.504;2023-07-20T12:36:23;28.40;99.00
34766;DHT22;20984;43.508;1.504;2023-07-20T12:38:49;28.70;98.70
34766;DHT22;20984;43.508;1.504;2023-07-20T12:41:16;28.70;96.90
34766;DHT22;20984;43.508;1.504;2023-07-20T12:43:45;28.90;97.00
34766;DHT22;20984;43.508;1.504;2023-07-20T12:46:11;28.90;97.30
34766;DHT22;20984;43.508;1.504;2023-07-20T12:48:37;28.70;97.80
34766;DHT22;20984;43.508;1.504;2023-07-20T12:51:05;28.60;96.60
34766;DHT22;20984;43.508;1.504;2023-07-20T12:53:31;28.50;96.40
34766;DHT22;20984;43.508;1.504;2023-07-20T12:55:58;28.50;96.40
34766;DHT22;20984;43.508;1.504;2023-07-20T12:58:24;28.50;97.80
34766;DHT22;20984;43.508;1.504;2023-07-20T13:00:50;28.80;97.10
34766;DHT22;20984;43.508;1.504;2023-07-20T13:03:15;29.00;97.60
34766;DHT22;20984;43.508;1.504;2023-07-20T13:05:44;29.00;95.50
34766;DHT22;20984;43.508;1.504;2023-07-20T13:08:09;28.90;94.90
34766;DHT22;20984;43.508;1.504;2023-07-20T13:10:35;28.80;95.90
34766;DHT22;20984;43.508;1.504;2023-07-20T13:13:01;28.70;95.40
34766;DHT22;20984;43.508;1.504;2023-07-20T13:15:30;28.60;95.20
34766;DHT22;20984;43.508;1.504;2023-07-20T13:17:57;28.90;97.30
34766;DHT22;20984;43.508;1.504;2023-07-20T13:20:24;29.10;96.70
34766;DHT22;20984;43.508;1.504;2023-07-20T13:22:50;29.30;94.20
34766;DHT22;20984;43.508;1.504;2023-07-20T13:25:16;29.40;94.50
34766;DHT22;20984;43.508;1.504;2023-07-20T13:28:00;29.60;95.60
34766;DHT22;20984;43.508;1.504;2023-07-20T13:30:26;29.80;94.60
34766;DHT22;20984;43.508;1.504;2023-07-20T13:32:51;29.90;95.50
34766;DHT22;20984;43.508;1.504;2023-07-20T13:35:17;30.20;94.30
34766;DHT22;20984;43.508;1.504;2023-07-20T13:37:43;30.30;94.20
34766;DHT22;20984;43.508;1.504;2023-07-20T13:40:09;30.50;93.80
34766;DHT22;20984;43.508;1.504;2023-07-20T13:42:39;30.30;90.90
34766;DHT22;20984;43.508;1.504;2023-07-20T13:45:06;30.10;92.90
34766;DHT22;20984;43.508;1.504;2023-07-20T13:47:31;30.10;92.00
34766;DHT22;20984;43.508;1.504;2023-07-20T13:49:57;30.10;93.30
34766;DHT22;20984;43.508;1.504;2023-07-20T13:52:23;30.20;93.60
34766;DHT22;20984;43.508;1.504;2023-07-20T13:54:48;30.30;91.70
34766;DHT22;20984;43.508;1.504;2023-07-20T13:57:14;30.40;91.50
34766;DHT22;20984;43.508;1.504;2023-07-20T13:59:44;30.30;92.60
34766;DHT22;20984;43.508;1.504;2023-07-20T14:02:10;30.40;90.40
34766;DHT22;20984;43.508;1.504;2023-07-20T14:04:35;30.10;90.70
34766;DHT22;20984;43.508;1.504;2023-07-20T14:07:01;30.30;90.70
34766;DHT22;20984;43.508;1.504;2023-07-20T14:09:27;30.60;90.60
34766;DHT22;20984;43.508;1.504;2023-07-20T14:11:53;30.80;90.70
34766;DHT22;20984;43.508;1.504;2023-07-20T14:14:18;31.10;90.60
34766;DHT22;20984;43.508;1.504;2023-07-20T14:16:44;31.20;89.80
34766;DHT22;20984;43.508;1.504;2023-07-20T14:19:10;31.10;91.00
34766;DHT22;20984;43.508;1.504;2023-07-20T14:21:35;31.40;88.30
34766;DHT22;20984;43.508;1.504;2023-07-20T14:24:01;31.50;86.60
34766;DHT22;20984;43.508;1.504;2023-07-20T14:26:27;31.20;86.60
34766;DHT22;20984;43.508;1.504;2023-07-20T14:28:53;30.90;85.40
34766;DHT22;20984;43.508;1.504;2023-07-20T14:31:18;30.90;85.20
34766;DHT22;20984;43.508;1.504;2023-07-20T14:33:45;31.10;88.40
34766;DHT22;20984;43.508;1.504;2023-07-20T14:36:11;31.50;85.60
34766;DHT22;20984;43.508;1.504;2023-07-20T14:38:36;32.00;83.40
34766;DHT22;20984;43.508;1.504;2023-07-20T14:41:02;32.80;82.90
34766;DHT22;20984;43.508;1.504;2023-07-20T14:43:28;33.20;78.10
34766;DHT22;20984;43.508;1.504;2023-07-20T14:45:54;33.90;78.70
34766;DHT22;20984;43.508;1.504;2023-07-20T14:48:20;34.70;78.10
34766;DHT22;20984;43.508;1.504;2023-07-20T14:50:46;35.70;74.60
34766;DHT22;20984;43.508;1.504;2023-07-20T14:53:15;36.10;71.80
34766;DHT22;20984;43.508;1.504;2023-07-20T14:55:42;36.90;72.80
34766;DHT22;20984;43.508;1.504;2023-07-20T14:58:07;37.30;67.10
34766;DHT22;20984;43.508;1.504;2023-07-20T15:00:34;37.40;67.10
34766;DHT22;20984;43.508;1.504;2023-07-20T15:03:00;37.80;67.30
34766;DHT22;20984;43.508;1.504;2023-07-20T15:05:26;37.50;67.00
34766;DHT22;20984;43.508;1.504;2023-07-20T15:07:52;37.30;68.70
34766;DHT22;20984;43.508;1.504;2023-07-20T15:10:18;37.90;64.70
34766;DHT22;20984;43.508;1.504;2023-07-20T15:12:44;38.20;64.10
34766;DHT22;20984;43.508;1.504;2023-07-20T15:15:12;37.70;62.70
34766;DHT22;20984;43.508;1.504;2023-07-20T15:17:39;37.30;64.30
34766;DHT22;20984;43.508;1.504;2023-07-20T15:20:08;37.50;63.30
34766;DHT22;20984;43.508;1.504;2023-07-20T15:22:35;37.80;63.70
34766;DHT22;20984;43.508;1.504;2023-07-20T15:25:02;37.30;64.90
34766;DHT22;20984;43.508;1.504;2023-07-20T15:27:27;37.80;65.70
34766;DHT22;20984;43.508;1.504;2023-07-20T15:29:53;38.00;64.80
34766;DHT22;20984;43.508;1.504;2023-07-20T15:32:19;38.00;61.10
34766;DHT22;20984;43.508;1.504;2023-07-20T15:34:45;37.30;61.80
34766;DHT22;20984;43.508;1.504;2023-07-20T15:37:11;36.80;62.70
34766;DHT22;20984;43.508;1.504;2023-07-20T15:39:37;36.60;64.40
34766;DHT22;20984;43.508;1.504;2023-07-20T15:42:04;36.70;64.60
34766;DHT22;20984;43.508;1.504;2023-07-20T15:44:30;37.10;65.10
34766;DHT22;20984;43.508;1.504;2023-07-20T15:46:56;37.50;64.60